Time;durP1;ratioP1;P1;durP2;ratioP2;P2;SDS_P1;SDS_P2;PMS_P1;PMS_P2;Temp;Humidity;BMP_temperature;BMP_pressure;BME280_temperature;BME280_humidity;BME280_pressure;Samples;Min_cycle;Max_cycle;Signal;HPM_P1;HPM_P2
2022/06/13 00:00:53;;;;;;;18.67;4.13;;;14.30;99.90;;;13.42;97.18;101295.22;4944027;28;20043;-74
2022/06/13 00:03:19;;;;;;;17.42;3.95;;;14.40;99.90;;;13.44;97.88;101294.22;4968507;28;20502;-74
2022/06/13 00:05:45;;;;;;;22.48;3.42;;;14.40;99.90;;;13.45;97.87;101292.41;4939737;28;20056;-74
2022/06/13 00:08:10;;;;;;;;;;;14.40;99.90;;;13.38;97.62;101285.72;4968375;28;20106;-74
2022/06/13 00:10:36;;;;;;;16.73;3.67;;;14.30;99.90;;;13.32;97.37;101290.34;4945649;28;19913;-75
2022/06/13 00:13:03;;;;;;;;;;;14.30;99.90;;;13.25;97.07;101293.38;4949599;28;20110;-74
2022/06/13 00:15:30;;;;;;;19.50;4.03;;;14.20;99.90;;;13.19;96.96;101283.94;4967996;28;20311;-74
2022/06/13 00:17:56;;;;;;;18.85;4.53;;;14.20;99.90;;;13.17;97.34;101280.50;4948289;28;20046;-74
2022/06/13 00:20:21;;;;;;;12.77;4.05;;;14.10;99.90;;;13.11;96.59;101280.81;4948362;28;20106;-74
2022/06/13 00:22:47;;;;;;;14.25;4.35;;;14.10;99.90;;;13.05;96.77;101281.13;4945286;28;20018;-74
2022/06/13 00:25:14;;;;;;;;;;;14.00;99.90;;;12.95;96.91;101277.19;4949151;28;20607;-74
2022/06/13 00:27:40;;;;;;;17.27;3.90;;;13.90;99.90;;;12.83;96.74;101270.69;4947082;28;20453;-74
2022/06/13 00:30:07;;;;;;;;;;;13.90;99.90;;;12.71;97.41;101270.34;4954725;28;20030;-74
2022/06/13 00:32:35;;;;;;;14.40;3.97;;;13.70;99.90;;;12.60;97.78;101277.91;4945858;28;19914;-74
2022/06/13 00:35:02;;;;;;;17.17;4.35;;;13.60;99.90;;;12.52;97.77;101266.84;4961915;28;20038;-74
2022/06/13 00:37:29;;;;;;;15.25;4.10;;;13.50;99.90;;;12.43;97.48;101265.47;4965095;28;20069;-75
2022/06/13 00:39:55;;;;;;;18.48;4.68;;;13.40;99.90;;;12.35;97.93;101269.41;4951585;28;20036;-74
2022/06/13 00:42:24;;;;;;;16.70;4.50;;;13.30;99.90;;;12.22;98.25;101261.16;4946139;28;20018;-75
2022/06/13 00:45:11;;;;;;;18.85;4.53;;;13.20;99.90;;;12.10;98.33;101260.81;4927660;28;20035;-74
2022/06/13 00:47:40;;;;;;;15.63;4.82;;;13.10;99.90;;;11.99;98.63;101257.78;4963521;28;20039;-75
2022/06/13 00:50:13;;;;;;;11.55;4.63;;;13.00;99.90;;;11.88;99.22;101260.91;4950173;28;20441;-74
2022/06/13 00:52:47;;;;;;;20.13;5.07;;;12.90;99.90;;;11.78;99.22;101256.03;4949921;28;20038;-74
2022/06/13 00:55:18;;;;;;;18.27;4.68;;;12.80;99.90;;;11.69;99.65;101252.88;4946716;28;20142;-74
2022/06/13 00:57:44;;;;;;;18.92;5.18;;;12.70;99.90;;;11.59;100.00;101250.69;4932225;28;20031;-74
2022/06/13 01:00:15;;;;;;;22.33;5.90;;;12.60;99.90;;;11.50;100.00;101246.66;4948500;28;20042;-75
2022/06/13 01:02:45;;;;;;;17.27;5.40;;;12.50;99.90;;;11.41;100.00;101240.00;4933429;28;20044;-74
2022/06/13 01:05:13;;;;;;;13.48;4.82;;;12.50;99.90;;;11.34;100.00;101243.81;4948820;28;20031;-73
2022/06/13 01:07:39;;;;;;;20.70;4.85;;;12.40;99.90;;;11.32;100.00;101240.41;4945085;28;20039;-74
2022/06/13 01:12:51;;;;;;;20.17;5.25;;;12.40;99.90;;;11.25;100.00;101237.16;4949528;28;20080;-75
2022/06/13 01:15:51;;;;;;;14.60;5.05;;;12.30;99.90;;;11.23;100.00;101241.63;4978668;28;20061;-74
2022/06/13 01:19:01;;;;;;;18.13;5.63;;;12.30;99.90;;;11.16;100.00;101237.50;4949871;28;20029;-76
2022/06/13 01:22:23;;;;;;;14.70;4.70;;;12.20;99.90;;;11.08;100.00;101232.56;4944431;28;20057;-75
2022/06/13 01:25:25;;;;;;;15.90;4.82;;;12.10;99.90;;;11.02;100.00;101231.97;4950427;28;20491;-74
2022/06/13 01:28:17;;;;;;;20.80;5.03;;;12.10;99.90;;;10.96;100.00;101221.66;4967205;28;20042;-75
2022/06/13 01:30:54;;;;;;;25.17;5.70;;;12.00;99.90;;;10.94;100.00;101221.72;4963542;28;20582;-74
2022/06/13 01:33:51;;;;;;;22.58;4.78;;;12.00;99.90;;;10.91;100.00;101226.25;4958783;28;20085;-75
2022/06/13 01:36:25;;;;;;;15.37;5.40;;;11.90;99.90;;;10.86;100.00;101221.16;4976314;28;20042;-74
2022/06/13 01:39:12;;;;;;;25.17;5.35;;;11.90;99.90;;;10.86;100.00;101229.06;4931395;28;20023;-74
2022/06/13 01:42:10;;;;;;;19.90;5.78;;;11.90;99.90;;;10.83;100.00;101224.78;4938631;28;20030;-74
2022/06/13 01:44:56;;;;;;;22.63;5.90;;;11.90;99.90;;;10.75;100.00;101228.63;4943327;28;20031;-74
2022/06/13 01:47:59;;;;;;;18.00;5.32;;;11.80;99.90;;;10.61;100.00;101230.03;4952950;28;20042;-75
2022/06/13 01:50:32;;;;;;;25.38;5.05;;;11.60;99.90;;;10.42;100.00;101231.66;4945449;28;20054;-74
2022/06/13 01:53:36;;;;;;;10.00;3.85;;;11.50;99.90;;;10.29;100.00;101238.28;4947365;28;20125;-75
2022/06/13 01:56:12;;;;;;;15.55;4.78;;;11.40;99.90;;;10.18;100.00;101229.00;4881136;29;20065;-74
2022/06/13 01:58:37;;;;;;;18.73;5.20;;;11.30;99.90;;;10.13;100.00;101232.69;4888776;29;20104;-74
2022/06/13 02:01:34;;;;;;;21.30;5.35;;;11.30;99.90;;;10.07;100.00;101232.03;4922855;28;20026;-75
2022/06/13 02:04:00;;;;;;;14.50;5.28;;;11.10;99.90;;;10.02;100.00;101233.97;4940065;28;20154;-74
2022/06/13 02:06:38;;;;;;;17.42;4.78;;;11.20;99.90;;;10.00;100.00;101224.38;4960445;28;20051;-74
2022/06/13 02:09:12;;;;;;;18.67;5.00;;;11.10;99.90;;;9.96;100.00;101230.72;4944049;28;21538;-74
2022/06/13 02:11:52;;;;;;;14.15;4.57;;;11.10;99.90;;;9.93;100.00;101226.38;4940292;28;20109;-74
2022/06/13 02:14:23;;;;;;;19.52;5.90;;;11.00;99.90;;;9.90;100.00;101218.63;4946318;28;20067;-75
2022/06/13 02:17:24;;;;;;;16.60;5.20;;;11.00;99.90;;;9.91;100.00;101230.00;4965175;28;20043;-74
2022/06/13 02:20:01;;;;;;;16.45;5.28;;;11.00;99.90;;;9.88;100.00;101219.59;4941384;28;20019;-74
2022/06/13 02:22:35;;;;;;;30.70;8.18;;;11.00;99.90;;;9.87;100.00;101224.00;4962532;28;20048;-74
2022/06/13 02:25:38;;;;;;;15.43;5.43;;;10.90;99.90;;;9.87;100.00;101224.00;4967763;28;20085;-75
2022/06/13 02:28:59;;;;;;;18.95;6.78;;;10.90;99.90;;;9.88;100.00;101232.75;4977407;28;20050;-74
2022/06/13 02:31:53;;;;;;;15.20;5.72;;;11.00;99.90;;;9.86;100.00;101238.06;4870891;29;20052;-74
2022/06/13 02:34:29;;;;;;;19.83;6.20;;;10.90;99.90;;;9.86;100.00;101233.63;4868803;29;20040;-75
2022/06/13 02:37:09;;;;;;;22.63;5.90;;;10.90;99.90;;;9.89;100.00;101232.66;4937967;28;20039;-74
2022/06/13 02:39:53;;;;;;;21.38;6.68;;;11.00;99.90;;;9.93;100.00;101231.66;4961147;28;20034;-75
2022/06/13 02:42:45;;;;;;;26.23;7.50;;;11.00;99.90;;;9.99;100.00;101239.31;4971902;28;20061;-74
2022/06/13 02:45:48;;;;;;;18.73;6.57;;;11.10;99.90;;;10.06;100.00;101238.22;4954160;28;20392;-75
2022/06/13 02:48:41;;;;;;;22.30;7.10;;;11.10;99.90;;;10.14;100.00;101242.31;4948766;28;20053;-75
2022/06/13 02:51:38;;;;;;;23.63;7.40;;;11.20;99.90;;;10.21;100.00;101238.53;4949173;28;20558;-75
2022/06/13 02:54:19;;;;;;;27.33;7.60;;;11.20;99.90;;;10.28;100.00;101232.16;4942074;28;20033;-74
2022/06/13 03:00:19;;;;;;;23.13;7.10;;;11.50;99.90;;;10.50;100.00;101236.66;4953204;28;20029;-75
2022/06/13 03:03:00;;;;;;;32.78;8.00;;;11.50;99.90;;;10.60;100.00;101230.09;4972512;28;20042;-75
2022/06/13 03:05:57;;;;;;;21.55;6.93;;;11.60;99.90;;;10.74;100.00;101230.41;4956373;28;20022;-74
2022/06/13 03:08:55;;;;;;;19.87;6.67;;;11.80;99.90;;;10.90;100.00;101224.53;4970186;28;21190;-74
2022/06/13 03:11:46;;;;;;;28.10;7.03;;;11.90;99.90;;;11.04;100.00;101235.41;4962006;28;20274;-75
2022/06/13 03:14:33;;;;;;;23.38;6.55;;;12.00;99.90;;;11.17;100.00;101231.34;4950596;28;20030;-75
2022/06/13 03:17:04;;;;;;;24.35;6.80;;;12.10;99.90;;;11.28;100.00;101241.44;4964800;28;20034;-75
2022/06/13 03:19:36;;;;;;;30.90;6.10;;;12.30;99.90;;;11.36;100.00;101247.25;4964722;28;20050;-75
2022/06/13 03:22:22;;;;;;;31.90;6.63;;;12.30;99.90;;;11.41;100.00;101233.88;4950715;28;20031;-74
2022/06/13 03:25:03;;;;;;;21.15;6.53;;;12.30;99.90;;;11.43;100.00;101232.88;4954666;28;20042;-75
2022/06/13 03:27:39;;;;;;;27.02;5.78;;;12.40;99.90;;;11.45;100.00;101238.09;4965085;28;20578;-75
2022/06/13 03:30:19;;;;;;;28.38;5.70;;;12.40;99.90;;;11.55;100.00;101238.56;4946733;28;20093;-74
2022/06/13 03:35:43;;;;;;;26.92;6.40;;;12.60;99.90;;;11.74;100.00;101228.09;4944146;28;20766;-76
2022/06/13 03:38:17;;;;;;;29.77;6.53;;;12.70;99.90;;;11.91;100.00;101233.50;4942117;28;20042;-75
2022/06/13 03:40:52;;;;;;;25.73;6.47;;;13.50;99.90;;;12.79;100.00;101240.94;4948437;28;20421;-75
2022/06/13 03:43:49;;;;;;;32.30;6.78;;;14.90;99.90;;;14.55;100.00;101246.09;4959036;28;20038;-75
2022/06/13 03:46:28;;;;;;;27.17;5.97;;;16.40;99.90;;;16.12;91.99;101263.59;4970293;28;20034;-75
2022/06/13 03:49:10;;;;;;;26.13;5.93;;;18.00;99.90;;;17.84;81.47;101287.09;4962896;28;20122;-75
2022/06/13 03:51:47;;;;;;;22.42;5.22;;;19.50;99.90;;;19.38;72.55;101290.34;4950926;28;20145;-75
2022/06/13 03:54:22;;;;;;;25.02;5.80;;;20.60;99.90;;;20.37;66.83;101288.19;4939503;28;20036;-75
2022/06/13 03:57:27;;;;;;;23.63;5.20;;;20.60;99.90;;;19.96;65.41;101289.59;4935272;28;20019;-75
2022/06/13 04:00:12;;;;;;;29.92;5.35;;;20.00;99.90;;;19.02;66.89;101286.75;4907044;28;20058;-75
2022/06/13 04:02:40;;;;;;;23.30;5.18;;;19.50;99.90;;;18.53;68.21;101292.09;4928722;28;20667;-75
2022/06/13 04:05:15;;;;;;;27.00;5.40;;;19.80;99.90;;;19.17;67.34;101299.94;4928467;28;20026;-75
2022/06/13 04:07:42;;;;;;;24.48;5.38;;;19.50;99.90;;;18.78;67.69;101296.56;4948591;28;20093;-75
2022/06/13 04:10:15;;;;;;;22.15;5.35;;;19.30;99.90;;;18.84;67.76;101294.28;4945819;28;20032;-75
2022/06/13 04:13:02;;;;;;;23.95;5.18;;;19.70;99.90;;;19.44;66.03;101308.59;4949213;28;20081;-75
2022/06/13 04:15:49;;;;;;;20.65;5.70;;;20.00;99.90;;;20.01;64.39;101303.44;4964682;28;20213;-75
2022/06/13 04:18:54;;;;;;;18.40;4.97;;;20.30;99.90;;;20.27;62.92;101320.13;4961701;28;20031;-75
2022/06/13 04:21:35;;;;;;;24.98;4.97;;;21.10;99.90;;;21.42;60.19;101312.72;4948398;28;20026;-75
2022/06/13 04:24:43;;;;;;;18.45;5.18;;;21.40;99.90;;;21.42;58.48;101329.66;4939633;28;20023;-74
2022/06/13 04:27:14;;;;;;;18.98;4.68;;;21.30;99.90;;;20.79;59.70;101331.22;4925276;28;20050;-75
2022/06/13 04:30:10;;;;;;;23.00;5.10;;;21.00;99.90;;;20.62;60.20;101336.09;4944924;28;20026;-75
2022/06/13 04:33:01;;;;;;;27.52;5.03;;;20.60;99.90;;;19.79;61.36;101313.09;4942304;28;20026;-75
2022/06/13 04:35:31;;;;;;;19.08;4.93;;;19.80;99.90;;;18.65;64.70;101307.22;4965887;28;20035;-76
2022/06/13 04:38:00;;;;;;;19.42;4.85;;;19.00;99.90;;;17.60;68.04;101303.75;4947330;28;20031;-76
2022/06/13 04:40:29;;;;;;;21.27;4.85;;;18.40;99.90;;;17.19;70.16;101303.81;4946915;28;20026;-75
2022/06/13 04:42:56;;;;;;;17.33;5.13;;;18.20;99.90;;;18.23;69.44;101306.63;4945494;28;20502;-75
2022/06/13 04:45:32;;;;;;;23.63;4.82;;;19.20;99.90;;;20.88;61.84;101333.16;4945183;28;20033;-75
2022/06/13 04:48:00;;;;;;;24.73;5.10;;;20.00;99.90;;;20.98;59.25;101336.81;4965704;28;20450;-75
2022/06/13 04:50:40;;;;;;;22.73;4.82;;;20.90;99.90;;;22.02;55.94;101348.75;4947992;28;20031;-75
2022/06/13 04:53:15;;;;;;;23.23;5.07;;;22.10;99.90;;;24.28;51.14;101374.22;4929928;28;20117;-75
2022/06/13 04:55:46;;;;;;;20.80;4.63;;;23.10;99.90;;;25.38;48.78;101380.75;4941770;28;20057;-76
2022/06/13 04:58:24;;;;;;;17.63;4.32;;;24.10;99.20;;;26.03;46.65;101383.22;4957163;28;20038;-75
2022/06/13 05:01:19;;;;;;;15.90;4.60;;;24.80;97.40;;;26.83;44.88;101401.13;4947406;28;20043;-75
2022/06/13 05:03:47;;;;;;;15.45;4.13;;;25.80;97.40;;;28.23;42.73;101411.25;4947187;28;20491;-75
2022/06/13 05:06:37;;;;;;;15.68;4.53;;;26.50;95.30;;;28.73;40.90;101410.16;4944531;28;20054;-75
2022/06/13 05:09:47;;;;;;;25.52;4.82;;;27.20;93.60;;;28.96;38.88;101428.34;4950502;28;20023;-74
2022/06/13 05:12:26;;;;;;;21.40;4.25;;;27.30;93.40;;;28.87;39.62;101432.13;4945534;28;20087;-75
2022/06/13 05:15:02;;;;;;;13.68;3.63;;;26.90;92.10;;;27.42;41.42;101435.31;4963159;28;20030;-75
2022/06/13 05:17:56;;;;;;;21.25;4.38;;;26.30;93.60;;;26.74;43.05;101421.84;4965931;28;20034;-75
2022/06/13 05:20:39;;;;;;;22.83;4.28;;;26.00;93.50;;;26.35;42.87;101424.94;4967073;28;20071;-75
2022/06/13 05:23:46;;;;;;;16.73;4.10;;;25.80;93.80;;;27.38;40.89;101430.41;4965137;28;20023;-76
2022/06/13 05:26:12;;;;;;;22.60;4.30;;;25.40;93.30;;;25.79;44.36;101425.13;4963515;28;20047;-75
2022/06/13 05:28:38;;;;;;;16.38;3.80;;;25.40;93.80;;;26.80;42.72;101422.06;4943949;28;20022;-75
2022/06/13 05:31:16;;;;;;;18.10;4.32;;;26.10;94.70;;;29.43;39.15;101446.47;4939521;28;20031;-76
2022/06/13 05:33:43;;;;;;;17.75;4.00;;;27.00;92.90;;;29.37;38.46;101449.91;4941204;28;20023;-75
2022/06/13 05:36:15;;;;;;;17.40;4.07;;;26.70;91.90;;;26.45;42.38;101428.38;4974978;28;20019;-75
2022/06/13 05:38:58;;;;;;;22.33;4.22;;;25.70;93.20;;;24.52;46.20;101402.53;4922686;28;20042;-75
2022/06/13 05:41:24;;;;;;;22.33;4.35;;;24.70;94.30;;;24.36;47.31;101408.47;4944127;28;20042;-75
2022/06/13 05:43:50;;;;;;;20.67;4.20;;;23.90;95.00;;;23.25;49.04;101402.50;4950232;28;20034;-75
2022/06/13 05:46:31;;;;;;;16.90;4.32;;;23.40;95.80;;;22.64;50.10;101394.47;4947284;28;20451;-75
2022/06/13 05:48:57;;;;;;;24.75;4.20;;;22.90;97.00;;;22.73;50.98;101391.81;4964515;28;21014;-76
2022/06/13 05:51:23;;;;;;;20.27;4.55;;;23.00;97.70;;;23.77;49.20;101413.06;4933177;28;20023;-75
2022/06/13 05:53:49;;;;;;;16.73;3.90;;;23.50;96.80;;;24.75;46.23;101421.84;4961860;28;20042;-75
2022/06/13 05:56:15;;;;;;;13.52;3.45;;;24.20;96.30;;;26.38;44.26;101438.13;4948414;28;20820;-75
2022/06/13 05:58:41;;;;;;;17.40;4.25;;;24.90;95.20;;;26.88;42.83;101447.41;4913655;28;20102;-75
2022/06/13 06:01:07;;;;;;;20.60;3.83;;;25.30;94.30;;;26.23;43.12;101466.69;4947034;28;20090;-74
2022/06/13 06:03:33;;;;;;;24.10;4.38;;;25.50;94.40;;;26.98;42.13;101470.59;4943277;28;20438;-74
2022/06/13 06:06:01;;;;;;;19.05;4.03;;;25.50;93.40;;;26.03;43.39;101466.88;4965017;28;20039;-74
2022/06/13 06:08:36;;;;;;;24.02;4.55;;;25.80;94.00;;;26.75;41.72;101485.66;4960919;28;20076;-75
2022/06/13 06:11:02;;;;;;;21.13;3.92;;;25.90;92.90;;;27.39;41.18;101483.50;4948534;28;21282;-76
2022/06/13 06:13:30;;;;;;;16.05;3.88;;;26.60;92.50;;;28.69;38.39;101500.09;4947745;28;20114;-75
2022/06/13 06:16:00;;;;;;;22.00;3.70;;;27.40;92.10;;;29.41;37.79;101500.91;4943398;28;20379;-75
2022/06/13 06:18:29;;;;;;;19.73;3.80;;;28.00;91.20;;;29.75;36.82;101501.63;4939018;28;20205;-75
2022/06/13 06:20:55;;;;;;;17.75;3.55;;;28.50;90.00;;;29.96;36.50;101503.69;4946999;28;20118;-74
2022/06/13 06:23:21;;;;;;;17.00;4.03;;;28.60;88.00;;;29.69;36.37;101499.56;4963957;28;20034;-75
2022/06/13 06:25:47;;;;;;;16.98;3.80;;;28.20;87.10;;;28.04;38.11;101484.69;4963048;28;20037;-75
2022/06/13 06:28:25;;;;;;;21.30;3.85;;;27.30;87.10;;;26.32;39.96;101474.69;4940922;28;21168;-75
2022/06/13 06:30:54;;;;;;;16.83;3.97;;;26.00;90.20;;;24.85;43.45;101457.69;4952215;28;20031;-74
2022/06/13 06:33:21;;;;;;;16.70;3.67;;;25.50;91.30;;;25.29;43.01;101451.72;4964364;28;20022;-75
2022/06/13 06:35:48;;;;;;;21.10;3.88;;;25.20;91.50;;;25.43;42.87;101461.16;4919231;28;20045;-75
2022/06/13 06:38:15;;;;;;;13.43;3.20;;;25.10;91.70;;;24.97;43.11;101450.28;4962668;28;20046;-75
2022/06/13 06:40:41;;;;;;;18.67;3.53;;;25.00;91.90;;;25.08;43.38;101452.78;4947746;28;20194;-74
2022/06/13 06:43:09;;;;;;;18.63;3.53;;;25.20;91.90;;;26.06;41.58;101463.84;4946928;28;20040;-74
2022/06/13 06:45:35;;;;;;;15.32;3.63;;;25.20;90.30;;;25.94;40.62;101476.75;4963269;28;20038;-74
2022/06/13 06:48:01;;;;;;;19.27;3.88;;;25.80;90.90;;;26.93;39.53;101480.19;4942220;28;20086;-74
2022/06/13 06:50:33;;;;;;;14.60;3.47;;;26.80;90.80;;;28.49;37.50;101497.75;4949424;28;20018;-75
2022/06/13 06:53:00;;;;;;;19.73;3.50;;;27.60;89.80;;;28.97;36.93;101495.13;4946688;28;20042;-75
2022/06/13 07:01:04;;;;;;;15.45;3.40;;;29.30;84.40;;;30.23;34.84;101515.88;4948887;28;20037;-74
2022/06/13 07:03:31;;;;;;;13.68;3.50;;;30.10;82.10;;;31.32;32.49;101527.22;4948145;28;20042;-74
2022/06/13 07:05:57;;;;;;;17.52;3.30;;;30.50;79.90;;;30.97;32.84;101520.66;4947899;28;20034;-75
2022/06/13 07:08:23;;;;;;;13.10;3.08;;;31.00;80.20;;;31.73;32.11;101515.84;4962038;28;20038;-74
2022/06/13 07:10:49;;;;;;;14.10;2.97;;;30.60;78.60;;;29.93;33.99;101515.72;4963928;28;20027;-74
2022/06/13 07:13:17;;;;;;;11.35;2.90;;;29.90;77.80;;;29.37;34.07;101504.97;4947295;28;20089;-74
2022/06/13 07:15:44;;;;;;;16.65;3.20;;;29.80;80.30;;;29.83;33.88;101512.44;4953579;28;20065;-75
2022/06/13 07:18:10;;;;;;;14.07;3.10;;;29.40;74.30;;;28.36;33.79;101509.06;4947644;28;20122;-74
2022/06/13 07:20:38;;;;;;;11.80;2.55;;;28.80;76.00;;;28.01;33.97;101507.50;4947554;28;20165;-75
2022/06/13 07:23:04;;;;;;;14.13;3.00;;;28.20;77.80;;;27.63;35.00;101498.13;4930309;28;20027;-74
2022/06/13 07:25:31;;;;;;;12.93;2.58;;;27.80;78.60;;;27.09;35.67;101498.38;4948408;28;20015;-74
2022/06/13 07:27:57;;;;;;;21.27;3.67;;;26.90;77.50;;;25.61;37.46;101485.44;4948902;28;20105;-75
2022/06/13 07:30:28;;;;;;;10.88;2.80;;;26.10;80.80;;;24.62;38.70;101461.72;4961290;28;20030;-75
2022/06/13 07:32:55;;;;;;;14.20;2.88;;;25.50;81.80;;;23.97;39.92;101445.34;4948018;28;20031;-74
2022/06/13 07:35:24;;;;;;;17.77;3.20;;;25.20;84.40;;;24.37;39.72;101439.78;4948696;28;20110;-75
2022/06/13 07:40:36;;;;;;;11.02;2.25;;;23.80;83.20;;;22.80;40.95;101420.81;4953143;28;20030;-74
2022/06/13 07:43:06;;;;;;;12.93;2.65;;;23.50;85.00;;;23.42;40.40;101427.84;4948844;28;20043;-74
2022/06/13 07:45:39;;;;;;;9.07;2.03;;;24.30;84.30;;;25.12;37.37;101443.41;4948766;28;20030;-75
2022/06/13 07:48:06;;;;;;;12.18;2.63;;;25.20;82.10;;;26.21;35.33;101456.03;4961521;28;20411;-74
2022/06/13 07:50:32;;;;;;;9.38;2.30;;;26.10;80.90;;;26.77;34.47;101468.28;4952925;28;20398;-74
2022/06/13 07:52:58;;;;;;;10.60;2.75;;;26.60;77.20;;;26.98;33.45;101476.00;4967270;28;20033;-74
2022/06/13 07:55:26;;;;;;;11.45;2.40;;;26.10;76.10;;;25.21;35.53;101474.03;4964420;28;20117;-74
2022/06/13 07:57:52;;;;;;;11.23;2.38;;;25.20;78.50;;;23.86;37.76;101457.91;4941057;28;20698;-74
2022/06/13 08:00:25;;;;;;;11.70;2.40;;;24.40;80.60;;;23.06;39.45;101448.94;4944350;28;20387;-74
2022/06/13 08:02:51;;;;;;;11.52;2.17;;;23.50;82.70;;;22.17;40.76;101435.09;4948785;28;20046;-75
2022/06/13 08:05:18;;;;;;;15.70;2.40;;;22.80;85.20;;;21.46;42.69;101429.38;4947929;28;20372;-73
2022/06/13 08:07:44;;;;;;;13.55;2.58;;;22.30;85.60;;;21.01;43.09;101424.88;4948735;28;20535;-73
2022/06/13 08:10:10;;;;;;;15.48;2.97;;;21.90;88.10;;;20.99;43.82;101426.88;4963050;28;20038;-74
2022/06/13 08:12:39;;;;;;;12.52;2.80;;;21.80;88.50;;;21.01;43.61;101421.38;4948872;28;20610;-73
2022/06/13 08:15:06;;;;;;;13.90;2.67;;;21.60;89.30;;;21.02;43.90;101413.22;4966631;28;20759;-74
2022/06/13 08:17:32;;;;;;;12.07;2.72;;;21.60;90.50;;;20.88;44.40;101408.97;4942375;28;20098;-73
2022/06/13 08:19:57;;;;;;;14.23;2.72;;;21.30;91.20;;;20.52;46.00;101396.63;4948355;28;20030;-74
2022/06/13 08:22:23;;;;;;;11.90;3.08;;;21.10;91.50;;;20.39;46.88;101395.84;4930385;28;20124;-74
2022/06/13 08:24:49;;;;;;;14.82;2.65;;;20.70;90.30;;;19.46;46.54;101389.44;4964295;28;20027;-74
2022/06/13 08:27:15;;;;;;;12.23;2.80;;;20.50;91.80;;;19.55;47.75;101387.06;4962038;28;20042;-73
2022/06/13 08:29:41;;;;;;;13.00;2.72;;;20.30;92.10;;;19.37;48.23;101390.13;4947431;28;20061;-74
2022/06/13 08:32:07;;;;;;;13.07;3.05;;;20.10;92.90;;;19.39;49.21;101380.16;4946298;28;20042;-74
2022/06/13 08:34:32;;;;;;;16.92;3.60;;;20.30;93.40;;;20.00;48.86;101376.56;4943884;28;20023;-74
2022/06/13 08:36:58;;;;;;;11.70;2.67;;;20.70;93.50;;;20.74;47.99;101381.59;4967032;28;20041;-73
2022/06/13 08:39:24;;;;;;;19.10;3.22;;;21.10;92.60;;;21.07;46.39;101391.44;4966740;28;20022;-73
2022/06/13 08:42:13;;;;;;;11.23;2.95;;;21.40;91.80;;;21.32;45.26;101401.00;4966202;28;20033;-73
2022/06/13 08:45:30;;;;;;;15.32;2.83;;;21.50;91.70;;;20.84;46.28;101401.28;4979017;28;20035;-74
2022/06/13 08:48:27;;;;;;;15.52;3.17;;;21.20;91.50;;;20.23;47.06;101393.53;4951139;28;20096;-74
2022/06/13 08:51:07;;;;;;;14.63;2.40;;;20.70;91.50;;;19.21;48.28;101392.19;4923153;28;20031;-74
2022/06/13 08:53:57;;;;;;;16.63;3.05;;;20.10;93.20;;;18.81;51.31;101376.34;4947957;28;20045;-73
2022/06/13 08:56:29;;;;;;;13.50;2.65;;;19.90;94.50;;;18.63;52.42;101384.66;4945487;28;20042;-74
2022/06/13 08:58:59;;;;;;;24.38;3.83;;;19.50;95.30;;;18.21;54.11;101378.69;4946243;28;20510;-74
2022/06/13 09:01:40;;;;;;;14.05;3.22;;;19.20;96.20;;;18.08;55.85;101379.63;4934615;28;20038;-74
2022/06/13 09:04:19;;;;;;;23.20;3.45;;;19.10;96.70;;;18.42;55.70;101389.69;4948859;28;20034;-74
2022/06/13 09:07:02;;;;;;;12.68;2.88;;;19.40;96.50;;;19.09;53.65;101382.38;4947492;28;20039;-73
2022/06/13 09:09:41;;;;;;;11.73;2.30;;;19.90;94.20;;;19.92;48.44;101395.03;4961640;28;20412;-74
2022/06/13 09:12:15;;;;;;;9.13;1.80;;;20.50;92.60;;;20.57;46.01;101402.50;4966580;28;20410;-74
2022/06/13 09:15:11;;;;;;;7.38;1.75;;;21.00;92.10;;;21.20;45.41;101404.69;4940355;28;20046;-74
2022/06/13 09:18:26;;;;;;;7.80;2.33;;;21.60;91.10;;;21.68;44.09;101415.06;4945857;28;20022;-74
2022/06/13 09:21:13;;;;;;;15.65;2.28;;;22.20;91.00;;;22.06;44.04;101413.69;4961446;28;20026;-74
2022/06/13 09:24:18;;;;;;;9.60;1.95;;;22.40;88.90;;;22.20;42.74;101423.25;4945991;28;20585;-74
2022/06/13 09:26:50;;;;;;;6.97;1.65;;;22.60;88.80;;;22.30;42.65;101424.22;4970580;28;20057;-74
2022/06/13 09:29:56;;;;;;;9.98;2.40;;;22.90;88.80;;;22.81;41.69;101422.53;4947949;28;20600;-74
2022/06/13 09:32:34;;;;;;;10.15;2.45;;;23.40;87.20;;;23.31;40.23;101425.28;4945802;28;20042;-74
2022/06/13 09:35:13;;;;;;;9.45;1.85;;;23.70;86.10;;;23.14;40.56;101419.56;4943870;28;20057;-74
2022/06/13 09:37:48;;;;;;;6.03;1.85;;;23.60;86.40;;;22.96;40.68;101425.69;4928159;28;20391;-73
2022/06/13 09:40:24;;;;;;;7.03;1.63;;;23.30;86.60;;;22.27;42.27;101417.28;4947813;28;20380;-74
2022/06/13 09:43:13;;;;;;;7.30;1.83;;;22.40;88.50;;;20.66;45.05;101408.94;4945520;28;20051;-74
2022/06/13 09:46:14;;;;;;;8.20;1.88;;;21.30;90.20;;;19.13;47.86;101397.22;4959732;28;20086;-74
2022/06/13 09:49:40;;;;;;;11.30;1.90;;;20.00;92.30;;;17.96;51.76;101389.31;4944890;28;20030;-74
2022/06/13 09:52:41;;;;;;;7.90;2.00;;;19.30;94.00;;;17.59;53.06;101389.91;4885182;29;20044;-74
2022/06/13 09:55:32;;;;;;;6.63;1.98;;;18.70;93.70;;;17.13;53.43;101378.75;4871785;29;20025;-74
2022/06/13 09:58:44;;;;;;;7.53;1.50;;;18.60;95.20;;;17.85;52.70;101366.06;4942124;28;20061;-74
2022/06/13 10:01:44;;;;;;;8.02;1.60;;;19.10;95.60;;;18.87;50.54;101364.41;4951779;28;20381;-74
2022/06/13 10:04:39;;;;;;;7.53;1.42;;;19.70;93.30;;;19.62;48.41;101367.78;4961643;28;20039;-73
2022/06/13 10:07:20;;;;;;;7.05;1.48;;;20.30;92.10;;;20.28;46.14;101378.84;4936932;28;20043;-73
2022/06/13 10:10:21;;;;;;;5.18;1.50;;;20.80;92.90;;;20.74;45.27;101370.91;4958743;28;20035;-73
2022/06/13 10:13:21;;;;;;;7.13;1.83;;;21.30;91.50;;;21.24;44.83;101371.31;4948509;28;20747;-74
2022/06/13 10:16:40;;;;;;;7.30;1.60;;;21.80;91.20;;;21.94;43.27;101371.81;4962867;28;20049;-74
2022/06/13 10:19:24;;;;;;;11.07;2.05;;;22.50;90.50;;;22.47;43.08;101374.47;4941032;28;20077;-74
2022/06/13 10:22:10;;;;;;;6.93;1.52;;;23.00;88.70;;;22.91;40.69;101394.72;4962389;28;20042;-73
2022/06/13 10:25:18;;;;;;;9.90;1.92;;;23.40;87.20;;;23.36;40.67;101398.84;4962243;28;20487;-73
2022/06/13 10:27:52;;;;;;;6.57;1.52;;;23.70;85.30;;;23.31;40.71;101404.63;4926086;28;20054;-73
2022/06/13 10:30:39;;;;;;;6.10;1.60;;;23.50;85.20;;;22.60;41.40;101399.25;4973605;28;20035;-74
2022/06/13 10:33:46;;;;;;;12.10;1.92;;;22.80;85.20;;;21.33;42.36;101396.50;4960439;28;20092;-74
2022/06/13 10:36:54;;;;;;;7.97;1.80;;;22.50;87.10;;;21.76;42.81;101396.53;4963442;28;20106;-74
2022/06/13 10:39:26;;;;;;;5.05;1.35;;;22.50;85.90;;;21.86;41.43;101386.75;4946764;28;20039;-74
2022/06/13 10:42:10;;;;;;;9.20;1.83;;;22.50;87.10;;;21.67;41.58;101391.94;4944936;28;20029;-74
2022/06/13 10:44:43;;;;;;;7.80;1.92;;;22.20;86.70;;;21.15;42.80;101399.69;4938315;28;20364;-74
2022/06/13 10:47:36;;;;;;;10.25;1.77;;;21.80;90.10;;;20.20;45.76;101399.13;4955132;28;20113;-75
2022/06/13 10:50:21;;;;;;;9.13;1.88;;;20.60;92.70;;;18.63;51.75;101386.50;4957347;28;20061;-75
2022/06/13 10:52:55;;;;;;;12.13;1.85;;;19.70;95.80;;;18.05;56.57;101383.34;4949240;28;20027;-74
2022/06/13 10:55:33;;;;;;;9.70;2.05;;;19.40;96.50;;;18.26;56.95;101374.88;4950534;28;20022;-74
2022/06/13 10:58:16;;;;;;;10.88;1.83;;;19.40;98.30;;;18.49;57.50;101371.47;4931781;28;20022;-74
2022/06/13 11:01:30;;;;;;;7.45;1.90;;;19.50;97.60;;;19.15;55.47;101360.59;4916094;28;20106;-73
2022/06/13 11:04:18;;;;;;;10.85;2.28;;;20.00;98.20;;;19.94;55.40;101351.19;4966843;28;20433;-74
2022/06/13 11:06:58;;;;;;;9.02;1.80;;;20.60;95.10;;;20.57;51.25;101357.03;4947109;28;20050;-73
2022/06/13 11:09:42;;;;;;;13.25;1.98;;;21.00;95.20;;;20.83;50.54;101351.44;4932424;28;20023;-73
2022/06/13 11:12:41;;;;;;;12.88;2.38;;;21.30;94.70;;;20.88;50.68;101347.41;4954882;28;20033;-74